sensor_id;sensor_type;location;lat;lon;timestamp;P1;durP1;ratioP1;P2;durP2;ratioP2
22113;SDS011;11223;49.968;9.062;2023-03-02T00:00:24;15.20;;;8.67;;
22113;SDS011;11223;49.968;9.062;2023-03-02T00:02:50;8.93;;;6.38;;
22113;SDS011;11223;49.968;9.062;2023-03-02T00:05:16;12.93;;;8.20;;
22113;SDS011;11223;49.968;9.062;2023-03-02T00:07:41;15.37;;;9.20;;
22113;SDS011;11223;49.968;9.062;2023-03-02T00:10:07;11.53;;;7.10;;
22113;SDS011;11223;49.968;9.062;2023-03-02T00:12:34;14.25;;;7.03;;
22113;SDS011;11223;49.968;9.062;2023-03-02T00:15:00;10.17;;;8.80;;
22113;SDS011;11223;49.968;9.062;2023-03-02T00:17:25;14.70;;;9.00;;
22113;SDS011;11223;49.968;9.062;2023-03-02T00:19:54;12.52;;;9.35;;
22113;SDS011;11223;49.968;9.062;2023-03-02T00:22:39;12.88;;;8.73;;
22113;SDS011;11223;49.968;9.062;2023-03-02T00:25:06;11.23;;;7.97;;
22113;SDS011;11223;49.968;9.062;2023-03-02T00:27:33;9.60;;;7.13;;
22113;SDS011;11223;49.968;9.062;2023-03-02T00:29:58;13.70;;;7.60;;
22113;SDS011;11223;49.968;9.062;2023-03-02T00:32:24;13.73;;;8.33;;
22113;SDS011;11223;49.968;9.062;2023-03-02T00:34:50;14.90;;;8.30;;
22113;SDS011;11223;49.968;9.062;2023-03-02T00:37:15;10.67;;;8.07;;
22113;SDS011;11223;49.968;9.062;2023-03-02T00:39:41;14.53;;;8.30;;
22113;SDS011;11223;49.968;9.062;2023-03-02T00:42:07;13.17;;;8.23;;
22113;SDS011;11223;49.968;9.062;2023-03-02T00:44:33;13.77;;;7.83;;
22113;SDS011;11223;49.968;9.062;2023-03-02T00:46:58;12.20;;;7.73;;
22113;SDS011;11223;49.968;9.062;2023-03-02T00:49:24;11.27;;;7.23;;
22113;SDS011;11223;49.968;9.062;2023-03-02T00:51:50;12.73;;;7.10;;
22113;SDS011;11223;49.968;9.062;2023-03-02T00:54:15;12.83;;;7.47;;
22113;SDS011;11223;49.968;9.062;2023-03-02T00:56:41;9.50;;;7.47;;
22113;SDS011;11223;49.968;9.062;2023-03-02T00:59:08;10.10;;;7.82;;
22113;SDS011;11223;49.968;9.062;2023-03-02T01:01:51;15.40;;;8.27;;
22113;SDS011;11223;49.968;9.062;2023-03-02T01:04:28;9.63;;;7.25;;
22113;SDS011;11223;49.968;9.062;2023-03-02T01:06:57;13.00;;;8.52;;
22113;SDS011;11223;49.968;9.062;2023-03-02T01:09:24;14.48;;;8.50;;
22113;SDS011;11223;49.968;9.062;2023-03-02T01:11:50;11.00;;;7.50;;
22113;SDS011;11223;49.968;9.062;2023-03-02T01:14:16;14.68;;;9.52;;
22113;SDS011;11223;49.968;9.062;2023-03-02T01:16:43;9.65;;;8.25;;
22113;SDS011;11223;49.968;9.062;2023-03-02T01:19:08;10.27;;;7.78;;
22113;SDS011;11223;49.968;9.062;2023-03-02T01:21:34;12.23;;;6.90;;
22113;SDS011;11223;49.968;9.062;2023-03-02T01:24:00;14.03;;;9.23;;
22113;SDS011;11223;49.968;9.062;2023-03-02T01:26:26;17.00;;;9.00;;
22113;SDS011;11223;49.968;9.062;2023-03-02T01:28:51;13.33;;;7.97;;
22113;SDS011;11223;49.968;9.062;2023-03-02T01:31:22;13.00;;;8.77;;
22113;SDS011;11223;49.968;9.062;2023-03-02T01:33:49;11.88;;;7.45;;
22113;SDS011;11223;49.968;9.062;2023-03-02T01:36:15;16.45;;;8.90;;
22113;SDS011;11223;49.968;9.062;2023-03-02T01:38:41;15.33;;;8.87;;
22113;SDS011;11223;49.968;9.062;2023-03-02T01:41:07;11.97;;;8.00;;
22113;SDS011;11223;49.968;9.062;2023-03-02T01:43:33;15.27;;;9.75;;
22113;SDS011;11223;49.968;9.062;2023-03-02T01:46:06;14.63;;;9.43;;
22113;SDS011;11223;49.968;9.062;2023-03-02T01:48:47;10.93;;;8.00;;
22113;SDS011;11223;49.968;9.062;2023-03-02T01:51:22;15.45;;;9.52;;
22113;SDS011;11223;49.968;9.062;2023-03-02T01:53:50;17.02;;;8.30;;
22113;SDS011;11223;49.968;9.062;2023-03-02T01:56:19;15.27;;;7.60;;
22113;SDS011;11223;49.968;9.062;2023-03-02T01:58:53;13.13;;;9.13;;
22113;SDS011;11223;49.968;9.062;2023-03-02T02:01:26;14.07;;;8.55;;
22113;SDS011;11223;49.968;9.062;2023-03-02T02:03:54;10.27;;;7.47;;
22113;SDS011;11223;49.968;9.062;2023-03-02T02:06:23;17.10;;;9.83;;
22113;SDS011;11223;49.968;9.062;2023-03-02T02:08:49;15.13;;;8.48;;
22113;SDS011;11223;49.968;9.062;2023-03-02T02:11:17;12.85;;;7.78;;
22113;SDS011;11223;49.968;9.062;2023-03-02T02:13:43;14.70;;;8.43;;
22113;SDS011;11223;49.968;9.062;2023-03-02T02:16:09;10.50;;;7.70;;
22113;SDS011;11223;49.968;9.062;2023-03-02T02:18:35;18.73;;;10.90;;
22113;SDS011;11223;49.968;9.062;2023-03-02T02:21:04;12.18;;;7.05;;
22113;SDS011;11223;49.968;9.062;2023-03-02T02:26:12;13.55;;;7.25;;
22113;SDS011;11223;49.968;9.062;2023-03-02T02:28:47;12.43;;;7.55;;
22113;SDS011;11223;49.968;9.062;2023-03-02T02:31:36;10.65;;;6.45;;
22113;SDS011;11223;49.968;9.062;2023-03-02T02:34:19;12.93;;;7.43;;
22113;SDS011;11223;49.968;9.062;2023-03-02T02:36:50;13.82;;;7.55;;
22113;SDS011;11223;49.968;9.062;2023-03-02T02:39:21;7.70;;;6.25;;
22113;SDS011;11223;49.968;9.062;2023-03-02T02:41:53;11.65;;;7.13;;
22113;SDS011;11223;49.968;9.062;2023-03-02T02:44:22;13.93;;;8.10;;
22113;SDS011;11223;49.968;9.062;2023-03-02T02:46:47;11.43;;;9.07;;
22113;SDS011;11223;49.968;9.062;2023-03-02T02:51:58;18.35;;;9.38;;
22113;SDS011;11223;49.968;9.062;2023-03-02T02:54:24;10.55;;;7.68;;
22113;SDS011;11223;49.968;9.062;2023-03-02T02:56:51;10.65;;;7.82;;
22113;SDS011;11223;49.968;9.062;2023-03-02T02:59:20;13.30;;;7.00;;
22113;SDS011;11223;49.968;9.062;2023-03-02T03:01:53;15.95;;;9.75;;
22113;SDS011;11223;49.968;9.062;2023-03-02T03:04:20;14.40;;;6.10;;
22113;SDS011;11223;49.968;9.062;2023-03-02T03:06:51;12.35;;;7.25;;
22113;SDS011;11223;49.968;9.062;2023-03-02T03:09:19;11.80;;;7.35;;
22113;SDS011;11223;49.968;9.062;2023-03-02T03:11:55;10.73;;;7.80;;
22113;SDS011;11223;49.968;9.062;2023-03-02T03:14:28;12.35;;;7.35;;
22113;SDS011;11223;49.968;9.062;2023-03-02T03:16:58;10.95;;;8.27;;
22113;SDS011;11223;49.968;9.062;2023-03-02T03:19:28;13.50;;;8.70;;
22113;SDS011;11223;49.968;9.062;2023-03-02T03:21:56;12.50;;;7.30;;
22113;SDS011;11223;49.968;9.062;2023-03-02T03:30:50;14.13;;;8.18;;
22113;SDS011;11223;49.968;9.062;2023-03-02T03:33:15;11.70;;;7.47;;
22113;SDS011;11223;49.968;9.062;2023-03-02T03:35:41;13.97;;;7.27;;
22113;SDS011;11223;49.968;9.062;2023-03-02T03:38:07;14.03;;;6.63;;
22113;SDS011;11223;49.968;9.062;2023-03-02T03:40:32;12.47;;;6.73;;
22113;SDS011;11223;49.968;9.062;2023-03-02T03:42:59;9.30;;;7.27;;
22113;SDS011;11223;49.968;9.062;2023-03-02T03:45:26;10.45;;;7.25;;
22113;SDS011;11223;49.968;9.062;2023-03-02T03:47:52;13.20;;;7.50;;
22113;SDS011;11223;49.968;9.062;2023-03-02T03:50:17;13.40;;;7.00;;
22113;SDS011;11223;49.968;9.062;2023-03-02T03:52:43;10.37;;;7.60;;
22113;SDS011;11223;49.968;9.062;2023-03-02T03:55:09;17.20;;;8.00;;
22113;SDS011;11223;49.968;9.062;2023-03-02T03:57:35;9.38;;;6.40;;
22113;SDS011;11223;49.968;9.062;2023-03-02T04:00:00;10.50;;;7.13;;
22113;SDS011;11223;49.968;9.062;2023-03-02T04:02:30;11.30;;;7.22;;
22113;SDS011;11223;49.968;9.062;2023-03-02T04:04:55;9.67;;;7.57;;
22113;SDS011;11223;49.968;9.062;2023-03-02T04:07:33;14.00;;;8.05;;
22113;SDS011;11223;49.968;9.062;2023-03-02T04:10:03;12.55;;;8.25;;
22113;SDS011;11223;49.968;9.062;2023-03-02T04:12:30;11.35;;;6.68;;
22113;SDS011;11223;49.968;9.062;2023-03-02T04:14:58;12.57;;;7.32;;
22113;SDS011;11223;49.968;9.062;2023-03-02T04:17:24;12.73;;;8.38;;
22113;SDS011;11223;49.968;9.062;2023-03-02T04:19:51;13.55;;;8.73;;
22113;SDS011;11223;49.968;9.062;2023-03-02T04:22:16;10.40;;;6.93;;
22113;SDS011;11223;49.968;9.062;2023-03-02T04:24:44;15.57;;;10.10;;
22113;SDS011;11223;49.968;9.062;2023-03-02T04:27:10;9.75;;;6.93;;
22113;SDS011;11223;49.968;9.062;2023-03-02T04:29:35;13.53;;;8.00;;
22113;SDS011;11223;49.968;9.062;2023-03-02T04:32:01;13.90;;;6.90;;
22113;SDS011;11223;49.968;9.062;2023-03-02T04:34:27;10.32;;;6.70;;
22113;SDS011;11223;49.968;9.062;2023-03-02T04:36:54;10.30;;;6.30;;
22113;SDS011;11223;49.968;9.062;2023-03-02T04:39:20;12.90;;;7.72;;
22113;SDS011;11223;49.968;9.062;2023-03-02T04:41:47;10.60;;;7.15;;
22113;SDS011;11223;49.968;9.062;2023-03-02T04:44:14;10.77;;;7.05;;
22113;SDS011;11223;49.968;9.062;2023-03-02T04:46:40;14.63;;;8.50;;
22113;SDS011;11223;49.968;9.062;2023-03-02T04:49:07;11.98;;;7.50;;
22113;SDS011;11223;49.968;9.062;2023-03-02T04:51:35;11.65;;;7.97;;
22113;SDS011;11223;49.968;9.062;2023-03-02T04:54:04;13.40;;;6.95;;
22113;SDS011;11223;49.968;9.062;2023-03-02T04:56:32;12.40;;;8.20;;
22113;SDS011;11223;49.968;9.062;2023-03-02T04:58:58;11.35;;;7.95;;
22113;SDS011;11223;49.968;9.062;2023-03-02T05:01:25;11.63;;;7.50;;
22113;SDS011;11223;49.968;9.062;2023-03-02T05:03:51;21.00;;;8.80;;
22113;SDS011;11223;49.968;9.062;2023-03-02T05:06:17;12.35;;;7.47;;
22113;SDS011;11223;49.968;9.062;2023-03-02T05:08:43;12.60;;;8.90;;
22113;SDS011;11223;49.968;9.062;2023-03-02T05:11:10;12.70;;;6.97;;
22113;SDS011;11223;49.968;9.062;2023-03-02T05:13:46;14.77;;;7.63;;
22113;SDS011;11223;49.968;9.062;2023-03-02T05:16:21;9.10;;;7.47;;
22113;SDS011;11223;49.968;9.062;2023-03-02T05:18:47;9.32;;;6.07;;
22113;SDS011;11223;49.968;9.062;2023-03-02T05:21:13;11.13;;;8.10;;
22113;SDS011;11223;49.968;9.062;2023-03-02T05:23:40;11.20;;;6.85;;
22113;SDS011;11223;49.968;9.062;2023-03-02T05:26:06;13.95;;;8.43;;
22113;SDS011;11223;49.968;9.062;2023-03-02T05:28:34;9.32;;;7.50;;
22113;SDS011;11223;49.968;9.062;2023-03-02T05:31:00;10.05;;;6.97;;
22113;SDS011;11223;49.968;9.062;2023-03-02T05:33:26;11.73;;;6.80;;
22113;SDS011;11223;49.968;9.062;2023-03-02T05:35:52;9.38;;;5.80;;
22113;SDS011;11223;49.968;9.062;2023-03-02T05:38:18;12.30;;;7.97;;
22113;SDS011;11223;49.968;9.062;2023-03-02T05:40:44;17.33;;;8.90;;
22113;SDS011;11223;49.968;9.062;2023-03-02T05:43:12;12.23;;;7.55;;
22113;SDS011;11223;49.968;9.062;2023-03-02T05:45:40;9.00;;;7.65;;
22113;SDS011;11223;49.968;9.062;2023-03-02T05:48:06;12.20;;;6.37;;
22113;SDS011;11223;49.968;9.062;2023-03-02T05:50:32;9.93;;;7.45;;
22113;SDS011;11223;49.968;9.062;2023-03-02T05:52:58;12.25;;;7.78;;
22113;SDS011;11223;49.968;9.062;2023-03-02T05:55:26;14.75;;;8.00;;
22113;SDS011;11223;49.968;9.062;2023-03-02T05:57:52;13.10;;;8.43;;
22113;SDS011;11223;49.968;9.062;2023-03-02T06:00:18;10.70;;;7.33;;
22113;SDS011;11223;49.968;9.062;2023-03-02T06:02:44;13.45;;;8.13;;
22113;SDS011;11223;49.968;9.062;2023-03-02T06:05:11;14.50;;;7.77;;
22113;SDS011;11223;49.968;9.062;2023-03-02T06:07:38;14.70;;;9.27;;
22113;SDS011;11223;49.968;9.062;2023-03-02T06:10:04;14.93;;;7.90;;
22113;SDS011;11223;49.968;9.062;2023-03-02T06:12:31;11.23;;;7.90;;
22113;SDS011;11223;49.968;9.062;2023-03-02T06:14:57;12.70;;;7.68;;
22113;SDS011;11223;49.968;9.062;2023-03-02T06:17:23;12.90;;;8.10;;
22113;SDS011;11223;49.968;9.062;2023-03-02T06:19:49;11.43;;;8.02;;
22113;SDS011;11223;49.968;9.062;2023-03-02T06:22:15;14.03;;;9.50;;
22113;SDS011;11223;49.968;9.062;2023-03-02T06:24:40;11.67;;;7.10;;
22113;SDS011;11223;49.968;9.062;2023-03-02T06:27:06;13.13;;;8.10;;
22113;SDS011;11223;49.968;9.062;2023-03-02T06:29:32;14.80;;;8.47;;
22113;SDS011;11223;49.968;9.062;2023-03-02T06:31:57;10.63;;;7.27;;
22113;SDS011;11223;49.968;9.062;2023-03-02T06:34:24;14.90;;;8.10;;
22113;SDS011;11223;49.968;9.062;2023-03-02T06:36:49;10.90;;;7.47;;
22113;SDS011;11223;49.968;9.062;2023-03-02T06:39:15;12.23;;;7.70;;
22113;SDS011;11223;49.968;9.062;2023-03-02T06:41:41;11.90;;;7.63;;
22113;SDS011;11223;49.968;9.062;2023-03-02T06:44:07;13.05;;;8.45;;
22113;SDS011;11223;49.968;9.062;2023-03-02T06:46:33;16.90;;;8.13;;
22113;SDS011;11223;49.968;9.062;2023-03-02T06:48:59;13.40;;;8.30;;
22113;SDS011;11223;49.968;9.062;2023-03-02T06:51:24;14.53;;;8.73;;
22113;SDS011;11223;49.968;9.062;2023-03-02T06:53:50;14.13;;;8.73;;
22113;SDS011;11223;49.968;9.062;2023-03-02T06:56:15;14.43;;;9.77;;
22113;SDS011;11223;49.968;9.062;2023-03-02T06:58:41;17.90;;;8.93;;
22113;SDS011;11223;49.968;9.062;2023-03-02T07:01:07;11.70;;;8.00;;
22113;SDS011;11223;49.968;9.062;2023-03-02T07:03:32;12.70;;;7.53;;
22113;SDS011;11223;49.968;9.062;2023-03-02T07:05:59;12.90;;;7.68;;
22113;SDS011;11223;49.968;9.062;2023-03-02T07:08:25;11.63;;;6.97;;
22113;SDS011;11223;49.968;9.062;2023-03-02T07:10:51;13.20;;;8.67;;
22113;SDS011;11223;49.968;9.062;2023-03-02T07:13:17;17.27;;;7.57;;
22113;SDS011;11223;49.968;9.062;2023-03-02T07:15:42;12.27;;;8.30;;
22113;SDS011;11223;49.968;9.062;2023-03-02T07:18:08;12.00;;;6.93;;
22113;SDS011;11223;49.968;9.062;2023-03-02T07:20:34;10.97;;;7.70;;
22113;SDS011;11223;49.968;9.062;2023-03-02T07:22:59;14.30;;;8.70;;
22113;SDS011;11223;49.968;9.062;2023-03-02T07:25:25;15.50;;;8.90;;
22113;SDS011;11223;49.968;9.062;2023-03-02T07:27:51;10.23;;;7.33;;
22113;SDS011;11223;49.968;9.062;2023-03-02T07:30:16;14.63;;;8.20;;
22113;SDS011;11223;49.968;9.062;2023-03-02T07:32:46;12.15;;;9.10;;
22113;SDS011;11223;49.968;9.062;2023-03-02T07:35:12;14.00;;;8.13;;
22113;SDS011;11223;49.968;9.062;2023-03-02T07:37:37;16.23;;;8.70;;
22113;SDS011;11223;49.968;9.062;2023-03-02T07:40:03;12.57;;;7.27;;
22113;SDS011;11223;49.968;9.062;2023-03-02T07:42:30;13.07;;;8.40;;
22113;SDS011;11223;49.968;9.062;2023-03-02T07:44:56;11.82;;;8.38;;
22113;SDS011;11223;49.968;9.062;2023-03-02T07:47:22;13.88;;;8.05;;
22113;SDS011;11223;49.968;9.062;2023-03-02T07:49:48;13.10;;;9.13;;
22113;SDS011;11223;49.968;9.062;2023-03-02T07:52:14;15.77;;;8.33;;
22113;SDS011;11223;49.968;9.062;2023-03-02T07:54:39;13.40;;;9.00;;
22113;SDS011;11223;49.968;9.062;2023-03-02T07:57:05;15.73;;;8.87;;
22113;SDS011;11223;49.968;9.062;2023-03-02T07:59:30;13.10;;;9.23;;
22113;SDS011;11223;49.968;9.062;2023-03-02T08:01:56;14.02;;;9.32;;
22113;SDS011;11223;49.968;9.062;2023-03-02T08:04:23;11.25;;;6.95;;
22113;SDS011;11223;49.968;9.062;2023-03-02T08:06:49;13.43;;;8.73;;
22113;SDS011;11223;49.968;9.062;2023-03-02T08:09:15;15.03;;;9.70;;
22113;SDS011;11223;49.968;9.062;2023-03-02T08:11:41;12.95;;;8.02;;
22113;SDS011;11223;49.968;9.062;2023-03-02T08:14:06;14.63;;;8.67;;
22113;SDS011;11223;49.968;9.062;2023-03-02T08:16:32;12.87;;;8.30;;
22113;SDS011;11223;49.968;9.062;2023-03-02T08:18:58;10.23;;;7.50;;
22113;SDS011;11223;49.968;9.062;2023-03-02T08:21:24;11.25;;;8.70;;
22113;SDS011;11223;49.968;9.062;2023-03-02T08:23:51;12.18;;;7.88;;
22113;SDS011;11223;49.968;9.062;2023-03-02T08:26:17;11.20;;;6.90;;
22113;SDS011;11223;49.968;9.062;2023-03-02T08:28:44;8.35;;;6.82;;
22113;SDS011;11223;49.968;9.062;2023-03-02T08:31:10;11.18;;;9.10;;
22113;SDS011;11223;49.968;9.062;2023-03-02T08:33:37;10.40;;;9.38;;
22113;SDS011;11223;49.968;9.062;2023-03-02T08:36:04;11.90;;;10.17;;
22113;SDS011;11223;49.968;9.062;2023-03-02T08:38:31;11.77;;;10.68;;
22113;SDS011;11223;49.968;9.062;2023-03-02T08:40:57;10.55;;;9.55;;
22113;SDS011;11223;49.968;9.062;2023-03-02T08:43:26;10.45;;;9.35;;
22113;SDS011;11223;49.968;9.062;2023-03-02T08:45:52;9.63;;;8.63;;
22113;SDS011;11223;49.968;9.062;2023-03-02T08:48:20;10.00;;;9.00;;
22113;SDS011;11223;49.968;9.062;2023-03-02T08:53:21;8.82;;;8.00;;
22113;SDS011;11223;49.968;9.062;2023-03-02T08:55:47;9.27;;;8.38;;
22113;SDS011;11223;49.968;9.062;2023-03-02T08:58:13;10.60;;;9.60;;
22113;SDS011;11223;49.968;9.062;2023-03-02T09:00:39;11.27;;;8.37;;
22113;SDS011;11223;49.968;9.062;2023-03-02T09:03:05;9.87;;;8.87;;
22113;SDS011;11223;49.968;9.062;2023-03-02T09:05:30;10.90;;;8.20;;
22113;SDS011;11223;49.968;9.062;2023-03-02T09:07:56;10.03;;;9.03;;
22113;SDS011;11223;49.968;9.062;2023-03-02T09:10:22;9.80;;;8.80;;
22113;SDS011;11223;49.968;9.062;2023-03-02T09:12:47;8.53;;;7.67;;
22113;SDS011;11223;49.968;9.062;2023-03-02T09:15:13;11.45;;;10.20;;
22113;SDS011;11223;49.968;9.062;2023-03-02T09:17:39;11.33;;;9.63;;
22113;SDS011;11223;49.968;9.062;2023-03-02T09:20:05;10.87;;;8.50;;
22113;SDS011;11223;49.968;9.062;2023-03-02T09:22:31;9.38;;;8.48;;
22113;SDS011;11223;49.968;9.062;2023-03-02T09:24:59;10.48;;;8.45;;
22113;SDS011;11223;49.968;9.062;2023-03-02T09:27:26;10.52;;;9.40;;
22113;SDS011;11223;49.968;9.062;2023-03-02T09:29:51;14.90;;;10.50;;
22113;SDS011;11223;49.968;9.062;2023-03-02T09:32:17;10.20;;;9.20;;
22113;SDS011;11223;49.968;9.062;2023-03-02T09:34:43;12.63;;;11.33;;
22113;SDS011;11223;49.968;9.062;2023-03-02T09:37:08;10.80;;;9.70;;
22113;SDS011;11223;49.968;9.062;2023-03-02T09:39:35;10.37;;;9.27;;
22113;SDS011;11223;49.968;9.062;2023-03-02T09:42:08;10.50;;;9.40;;
22113;SDS011;11223;49.968;9.062;2023-03-02T09:50:27;12.18;;;10.55;;
22113;SDS011;11223;49.968;9.062;2023-03-02T09:55:57;10.10;;;9.20;;
22113;SDS011;11223;49.968;9.062;2023-03-02T09:58:36;12.90;;;10.27;;
22113;SDS011;11223;49.968;9.062;2023-03-02T10:01:05;10.65;;;9.02;;
22113;SDS011;11223;49.968;9.062;2023-03-02T10:03:38;10.52;;;9.48;;
22113;SDS011;11223;49.968;9.062;2023-03-02T10:06:10;11.20;;;9.00;;
22113;SDS011;11223;49.968;9.062;2023-03-02T10:08:37;10.93;;;9.65;;
22113;SDS011;11223;49.968;9.062;2023-03-02T10:11:07;12.05;;;8.73;;
22113;SDS011;11223;49.968;9.062;2023-03-02T10:13:51;11.70;;;9.70;;
22113;SDS011;11223;49.968;9.062;2023-03-02T10:16:27;11.13;;;8.73;;
22113;SDS011;11223;49.968;9.062;2023-03-02T10:24:38;10.60;;;8.65;;
22113;SDS011;11223;49.968;9.062;2023-03-02T10:27:24;10.30;;;9.20;;
22113;SDS011;11223;49.968;9.062;2023-03-02T10:30:09;12.05;;;8.35;;
22113;SDS011;11223;49.968;9.062;2023-03-02T10:32:47;10.25;;;8.15;;
22113;SDS011;11223;49.968;9.062;2023-03-02T10:35:18;9.90;;;7.03;;
22113;SDS011;11223;49.968;9.062;2023-03-02T10:37:46;8.68;;;7.68;;
22113;SDS011;11223;49.968;9.062;2023-03-02T10:40:26;9.13;;;7.82;;
22113;SDS011;11223;49.968;9.062;2023-03-02T10:43:04;8.10;;;7.30;;
22113;SDS011;11223;49.968;9.062;2023-03-02T10:45:33;9.40;;;7.60;;
22113;SDS011;11223;49.968;9.062;2023-03-02T10:48:03;9.73;;;7.73;;
22113;SDS011;11223;49.968;9.062;2023-03-02T10:50:31;9.80;;;8.32;;
22113;SDS011;11223;49.968;9.062;2023-03-02T10:52:57;8.65;;;7.40;;
22113;SDS011;11223;49.968;9.062;2023-03-02T10:55:23;7.90;;;7.03;;
22113;SDS011;11223;49.968;9.062;2023-03-02T11:00:30;8.35;;;6.35;;
22113;SDS011;11223;49.968;9.062;2023-03-02T11:02:59;7.85;;;7.03;;
22113;SDS011;11223;49.968;9.062;2023-03-02T11:05:34;9.48;;;8.55;;
22113;SDS011;11223;49.968;9.062;2023-03-02T11:08:04;8.05;;;7.25;;
22113;SDS011;11223;49.968;9.062;2023-03-02T11:10:35;9.07;;;7.07;;
22113;SDS011;11223;49.968;9.062;2023-03-02T11:15:48;8.23;;;6.70;;
22113;SDS011;11223;49.968;9.062;2023-03-02T11:18:30;7.40;;;6.30;;
22113;SDS011;11223;49.968;9.062;2023-03-02T11:21:04;9.13;;;8.23;;
22113;SDS011;11223;49.968;9.062;2023-03-02T11:24:06;8.70;;;7.27;;
22113;SDS011;11223;49.968;9.062;2023-03-02T11:26:53;8.20;;;7.27;;
22113;SDS011;11223;49.968;9.062;2023-03-02T11:29:53;7.93;;;6.60;;
22113;SDS011;11223;49.968;9.062;2023-03-02T11:32:28;12.97;;;6.77;;
22113;SDS011;11223;49.968;9.062;2023-03-02T11:37:52;8.82;;;7.57;;
22113;SDS011;11223;49.968;9.062;2023-03-02T11:42:48;7.20;;;6.60;;
22113;SDS011;11223;49.968;9.062;2023-03-02T11:47:50;6.63;;;6.03;;
22113;SDS011;11223;49.968;9.062;2023-03-02T11:50:20;8.63;;;7.03;;
22113;SDS011;11223;49.968;9.062;2023-03-02T11:52:51;9.52;;;6.93;;
22113;SDS011;11223;49.968;9.062;2023-03-02T11:55:22;6.55;;;5.95;;
22113;SDS011;11223;49.968;9.062;2023-03-02T11:57:55;8.10;;;7.25;;
22113;SDS011;11223;49.968;9.062;2023-03-02T12:03:05;9.70;;;6.82;;
22113;SDS011;11223;49.968;9.062;2023-03-02T12:05:43;8.20;;;7.30;;
22113;SDS011;11223;49.968;9.062;2023-03-02T12:13:43;9.57;;;7.63;;
22113;SDS011;11223;49.968;9.062;2023-03-02T12:21:42;10.60;;;8.23;;
22113;SDS011;11223;49.968;9.062;2023-03-02T12:27:02;10.20;;;7.90;;
22113;SDS011;11223;49.968;9.062;2023-03-02T12:30:19;8.52;;;7.72;;
22113;SDS011;11223;49.968;9.062;2023-03-02T12:32:26;9.80;;;8.80;;
22113;SDS011;11223;49.968;9.062;2023-03-02T12:37:40;10.00;;;7.50;;
22113;SDS011;11223;49.968;9.062;2023-03-02T12:43:26;9.38;;;7.63;;
22113;SDS011;11223;49.968;9.062;2023-03-02T12:46:15;10.82;;;7.97;;
22113;SDS011;11223;49.968;9.062;2023-03-02T12:51:25;9.07;;;7.80;;
22113;SDS011;11223;49.968;9.062;2023-03-02T12:54:02;8.90;;;7.03;;
22113;SDS011;11223;49.968;9.062;2023-03-02T12:56:36;13.10;;;8.05;;
22113;SDS011;11223;49.968;9.062;2023-03-02T12:59:02;8.53;;;7.70;;
22113;SDS011;11223;49.968;9.062;2023-03-02T13:01:28;9.30;;;7.97;;
22113;SDS011;11223;49.968;9.062;2023-03-02T13:03:56;10.05;;;6.47;;
22113;SDS011;11223;49.968;9.062;2023-03-02T13:06:23;11.98;;;7.07;;
22113;SDS011;11223;49.968;9.062;2023-03-02T13:08:52;9.43;;;7.72;;
22113;SDS011;11223;49.968;9.062;2023-03-02T13:11:27;8.55;;;6.50;;
22113;SDS011;11223;49.968;9.062;2023-03-02T13:13:57;9.30;;;6.88;;
22113;SDS011;11223;49.968;9.062;2023-03-02T13:16:27;6.72;;;6.03;;
22113;SDS011;11223;49.968;9.062;2023-03-02T13:19:00;8.68;;;5.60;;
22113;SDS011;11223;49.968;9.062;2023-03-02T13:21:32;9.70;;;6.95;;
22113;SDS011;11223;49.968;9.062;2023-03-02T13:24:01;7.28;;;6.63;;
22113;SDS011;11223;49.968;9.062;2023-03-02T13:31:32;7.03;;;6.32;;
22113;SDS011;11223;49.968;9.062;2023-03-02T13:33:58;7.53;;;6.30;;
22113;SDS011;11223;49.968;9.062;2023-03-02T13:36:34;8.48;;;5.80;;
22113;SDS011;11223;49.968;9.062;2023-03-02T13:39:05;7.90;;;6.85;;
22113;SDS011;11223;49.968;9.062;2023-03-02T13:41:50;7.57;;;6.82;;
22113;SDS011;11223;49.968;9.062;2023-03-02T13:44:26;11.13;;;6.43;;
22113;SDS011;11223;49.968;9.062;2023-03-02T13:46:54;8.43;;;6.15;;
22113;SDS011;11223;49.968;9.062;2023-03-02T13:54:30;6.40;;;5.35;;
22113;SDS011;11223;49.968;9.062;2023-03-02T13:56:59;6.35;;;5.43;;
22113;SDS011;11223;49.968;9.062;2023-03-02T13:59:26;5.85;;;5.18;;
22113;SDS011;11223;49.968;9.062;2023-03-02T14:01:52;8.43;;;5.10;;
22113;SDS011;11223;49.968;9.062;2023-03-02T14:04:19;5.30;;;4.40;;
22113;SDS011;11223;49.968;9.062;2023-03-02T14:06:47;11.13;;;5.15;;
22113;SDS011;11223;49.968;9.062;2023-03-02T14:09:13;5.85;;;4.60;;
22113;SDS011;11223;49.968;9.062;2023-03-02T14:11:40;6.10;;;4.93;;
22113;SDS011;11223;49.968;9.062;2023-03-02T14:14:14;12.32;;;6.93;;
22113;SDS011;11223;49.968;9.062;2023-03-02T14:16:43;5.30;;;4.10;;
22113;SDS011;11223;49.968;9.062;2023-03-02T14:19:12;8.07;;;4.70;;
22113;SDS011;11223;49.968;9.062;2023-03-02T14:21:40;6.80;;;4.57;;
22113;SDS011;11223;49.968;9.062;2023-03-02T14:24:07;5.95;;;4.90;;
22113;SDS011;11223;49.968;9.062;2023-03-02T14:26:37;5.37;;;4.77;;
22113;SDS011;11223;49.968;9.062;2023-03-02T14:31:52;4.90;;;4.38;;
22113;SDS011;11223;49.968;9.062;2023-03-02T14:34:18;4.50;;;4.10;;
22113;SDS011;11223;49.968;9.062;2023-03-02T14:36:45;4.63;;;4.07;;
22113;SDS011;11223;49.968;9.062;2023-03-02T14:39:27;5.90;;;4.18;;
22113;SDS011;11223;49.968;9.062;2023-03-02T14:42:02;5.47;;;3.90;;
22113;SDS011;11223;49.968;9.062;2023-03-02T14:44:35;7.70;;;4.70;;
22113;SDS011;11223;49.968;9.062;2023-03-02T14:47:01;5.90;;;5.03;;
22113;SDS011;11223;49.968;9.062;2023-03-02T14:49:27;5.73;;;4.57;;
22113;SDS011;11223;49.968;9.062;2023-03-02T14:51:54;4.80;;;4.40;;
22113;SDS011;11223;49.968;9.062;2023-03-02T14:54:33;6.38;;;4.70;;
22113;SDS011;11223;49.968;9.062;2023-03-02T14:57:03;5.47;;;4.13;;
22113;SDS011;11223;49.968;9.062;2023-03-02T14:59:37;5.18;;;4.68;;
22113;SDS011;11223;49.968;9.062;2023-03-02T15:02:02;7.87;;;4.83;;
22113;SDS011;11223;49.968;9.062;2023-03-02T15:04:28;5.80;;;4.80;;
22113;SDS011;11223;49.968;9.062;2023-03-02T15:06:54;5.20;;;4.07;;
22113;SDS011;11223;49.968;9.062;2023-03-02T15:09:19;5.77;;;4.93;;
22113;SDS011;11223;49.968;9.062;2023-03-02T15:11:45;7.60;;;4.40;;
22113;SDS011;11223;49.968;9.062;2023-03-02T15:14:10;6.60;;;4.00;;
22113;SDS011;11223;49.968;9.062;2023-03-02T15:16:36;6.50;;;4.10;;
22113;SDS011;11223;49.968;9.062;2023-03-02T15:19:01;5.03;;;3.77;;
22113;SDS011;11223;49.968;9.062;2023-03-02T15:21:27;5.53;;;4.37;;
22113;SDS011;11223;49.968;9.062;2023-03-02T15:23:53;8.93;;;3.90;;
22113;SDS011;11223;49.968;9.062;2023-03-02T15:26:18;11.33;;;4.00;;
22113;SDS011;11223;49.968;9.062;2023-03-02T15:28:44;4.90;;;4.40;;
22113;SDS011;11223;49.968;9.062;2023-03-02T15:31:14;4.88;;;4.38;;
22113;SDS011;11223;49.968;9.062;2023-03-02T15:33:41;6.55;;;5.82;;
22113;SDS011;11223;49.968;9.062;2023-03-02T15:36:09;5.20;;;4.65;;
22113;SDS011;11223;49.968;9.062;2023-03-02T15:38:35;5.20;;;4.63;;
22113;SDS011;11223;49.968;9.062;2023-03-02T15:41:08;7.03;;;5.15;;
22113;SDS011;11223;49.968;9.062;2023-03-02T15:43:36;7.15;;;6.43;;
22113;SDS011;11223;49.968;9.062;2023-03-02T15:46:02;10.30;;;8.37;;
22113;SDS011;11223;49.968;9.062;2023-03-02T15:48:28;10.20;;;7.85;;
22113;SDS011;11223;49.968;9.062;2023-03-02T15:51:01;10.83;;;9.73;;
22113;SDS011;11223;49.968;9.062;2023-03-02T15:53:28;10.90;;;9.75;;
22113;SDS011;11223;49.968;9.062;2023-03-02T15:55:55;12.30;;;9.57;;
22113;SDS011;11223;49.968;9.062;2023-03-02T15:58:21;14.20;;;10.83;;
22113;SDS011;11223;49.968;9.062;2023-03-02T16:00:50;10.35;;;9.40;;
22113;SDS011;11223;49.968;9.062;2023-03-02T16:03:21;10.90;;;8.77;;
22113;SDS011;11223;49.968;9.062;2023-03-02T16:05:47;12.05;;;10.32;;